Elmore, Minnesota
Current Conditions -  °F | °C
As of 4:35 AM on Thursday 18 Dec 2014 (Local Time) from KFRM Reporting Station
Overcast Overcast  
Wind Chill: 10°   Ceiling: 800
Heat Index: 10°   Visibility: 10mi
Dew Point:   Wind: 0mph
Humidity: 79%   Direction: NA
Pressure: 30.25"   Gusts: NA
Location:  43.5°N, 94.09°W
Report Text: KFRM 181035Z AUTO 00000KT 10SM OVC008 M12/M15 A3025 RMK AO1
Loading
Personal Weather Stations






























Interactive Weather Map New forecast layout! Learn more

10-Day Weather Forecast

Advertisements
Track Severe Weather on mobile